createdAt,value
2017-06-15T00:00:41.944Z,18.7
2017-06-15T00:01:41.157Z,18.7
2017-06-15T00:02:40.877Z,18.7
2017-06-15T00:03:39.976Z,18.6
2017-06-15T00:04:39.200Z,18.6
2017-06-15T00:05:38.418Z,18.6
2017-06-15T00:07:36.905Z,18.5
2017-06-15T00:08:36.132Z,18.5
2017-06-15T00:09:35.250Z,18.5
2017-06-15T00:10:34.464Z,18.5
2017-06-15T00:11:34.065Z,18.5
2017-06-15T00:12:33.280Z,18.5
2017-06-15T00:13:32.508Z,18.5
2017-06-15T00:14:31.729Z,18.5
2017-06-15T00:15:30.830Z,18.5
2017-06-15T00:16:30.050Z,18.5
2017-06-15T00:17:29.274Z,18.5
2017-06-15T00:18:29.007Z,18.4
2017-06-15T00:19:28.223Z,18.4
2017-06-15T00:20:27.438Z,18.3
2017-06-15T00:21:26.550Z,18.3
2017-06-15T00:22:25.771Z,18.4
2017-06-15T00:23:24.757Z,18.4
2017-06-15T00:24:24.487Z,18.5
2017-06-15T00:26:22.600Z,18.5
2017-06-15T00:27:22.090Z,18.4
2017-06-15T00:28:21.191Z,18.3
2017-06-15T00:29:20.801Z,18.3
2017-06-15T00:30:20.028Z,18.1
2017-06-15T00:32:18.146Z,18.1
2017-06-15T00:33:17.370Z,18.1
2017-06-15T00:34:17.167Z,18.1
2017-06-15T00:35:15.883Z,18.1
2017-06-15T00:36:14.865Z,18.1
2017-06-15T00:37:14.356Z,18
2017-06-15T00:38:13.957Z,18
2017-06-15T00:39:12.939Z,18
2017-06-15T00:40:12.546Z,18
2017-06-15T00:41:11.769Z,18
2017-06-15T00:42:11.994Z,18.1
2017-06-15T00:43:10.210Z,18.1
2017-06-15T00:44:09.504Z,18.1
2017-06-15T00:45:08.726Z,18.1
2017-06-15T00:46:08.525Z,18.1
2017-06-15T00:47:07.249Z,18
2017-06-15T00:49:05.855Z,18
2017-06-15T00:50:05.646Z,18
2017-06-15T00:52:03.245Z,18
2017-06-15T00:53:02.471Z,18
2017-06-15T00:54:01.699Z,18
2017-06-15T00:55:01.307Z,18
2017-06-15T00:56:00.539Z,18.1
2017-06-15T00:56:59.760Z,18.1
2017-06-15T00:57:58.741Z,17.9
2017-06-15T00:58:57.964Z,17.6
2017-06-15T00:59:57.186Z,17.6
2017-06-15T01:00:56.297Z,17.7
2017-06-15T01:01:55.895Z,17.7
2017-06-15T01:02:55.117Z,17.7
2017-06-15T01:03:54.336Z,17.7
2017-06-15T01:04:53.440Z,17.8
2017-06-15T01:05:52.663Z,17.8
2017-06-15T01:06:52.462Z,17.6
2017-06-15T01:07:51.186Z,17.6
2017-06-15T01:08:50.294Z,17.6
2017-06-15T01:09:50.598Z,17.6
2017-06-15T01:10:49.316Z,17.7
2017-06-15T01:11:48.539Z,17.7
2017-06-15T01:12:47.762Z,17.7
2017-06-15T01:13:46.872Z,17.7
2017-06-15T01:14:46.094Z,17.7
2017-06-15T01:15:45.314Z,17.6
2017-06-15T01:16:44.534Z,17.6
2017-06-15T01:17:43.761Z,17.8
2017-06-15T01:18:42.866Z,17.8
2017-06-15T01:19:41.735Z,17.8
2017-06-15T01:20:41.107Z,17.7
2017-06-15T01:21:40.719Z,17.6
2017-06-15T01:22:39.943Z,17.6
2017-06-15T01:23:39.162Z,17.6
2017-06-15T01:24:38.377Z,17.6
2017-06-15T01:25:38.180Z,17.8
2017-06-15T01:26:36.780Z,17.8
2017-06-15T01:27:35.997Z,17.8
2017-06-15T01:28:35.226Z,17.8
2017-06-15T01:29:34.447Z,17.8
2017-06-15T01:30:34.052Z,17.8
2017-06-15T01:31:33.160Z,17.8
2017-06-15T01:32:32.154Z,17.7
2017-06-15T01:33:31.876Z,17.7
2017-06-15T01:34:31.049Z,17.8
2017-06-15T01:35:30.357Z,17.7
2017-06-15T01:36:29.593Z,17.8
2017-06-15T01:37:28.832Z,17.8
2017-06-15T01:38:27.935Z,17.8
2017-06-15T01:39:27.228Z,17.8
2017-06-15T01:40:26.444Z,17.8
2017-06-15T01:41:25.546Z,17.7
2017-06-15T01:42:24.764Z,17.7
2017-06-15T01:43:23.983Z,17.7
2017-06-15T01:44:23.785Z,17.7
2017-06-15T01:45:22.504Z,17.7
2017-06-15T01:46:21.722Z,17.7
2017-06-15T01:47:20.830Z,17.6
2017-06-15T01:48:20.053Z,17.7
2017-06-15T01:49:19.277Z,17.6
2017-06-15T01:50:18.385Z,17.6
2017-06-15T01:51:18.106Z,17.6
2017-06-15T01:52:17.212Z,17.6
2017-06-15T01:52:47.802Z,17.6
2017-06-15T01:54:15.589Z,17.6
2017-06-15T01:55:14.691Z,17.6
2017-06-15T01:56:14.778Z,17.6
2017-06-15T01:57:13.494Z,17.6
2017-06-15T01:58:12.606Z,17.6
2017-06-15T01:59:11.843Z,17.6
2017-06-15T02:00:11.647Z,17.5
2017-06-15T02:02:09.747Z,17.5
2017-06-15T02:03:08.984Z,17.6
2017-06-15T02:04:08.201Z,17.5
2017-06-15T02:05:07.426Z,17.5
2017-06-15T02:06:06.532Z,17.4
2017-06-15T02:07:06.331Z,17.4
2017-06-15T02:08:05.049Z,17.4
2017-06-15T02:09:04.156Z,17.4
2017-06-15T02:10:03.762Z,17.4
2017-06-15T02:11:02.992Z,17.3
2017-06-15T02:12:01.792Z,17.3
2017-06-15T02:13:01.027Z,17.3
2017-06-15T02:14:00.827Z,17.3
2017-06-15T02:14:31.416Z,17.3
2017-06-15T02:15:01.447Z,17.3
2017-06-15T02:15:59.157Z,17.3
2017-06-15T02:16:58.373Z,17.3
2017-06-15T02:17:57.229Z,17.2
2017-06-15T02:18:56.831Z,17.2
2017-06-15T02:19:56.626Z,17.2
2017-06-15T02:20:55.347Z,17.1
2017-06-15T02:21:54.569Z,17.2
2017-06-15T02:22:53.788Z,17.1
2017-06-15T02:23:53.009Z,17.1
2017-06-15T02:24:52.229Z,17
2017-06-15T02:26:50.330Z,17
2017-06-15T02:27:49.551Z,17
2017-06-15T02:28:48.849Z,17
2017-06-15T02:29:48.643Z,17
2017-06-15T02:30:47.673Z,17.1
2017-06-15T02:31:47.351Z,17.1
2017-06-15T02:32:46.068Z,17.2
2017-06-15T02:34:44.170Z,17
2017-06-15T02:35:43.397Z,17
2017-06-15T02:36:42.617Z,17
2017-06-15T02:37:41.854Z,17
2017-06-15T02:38:41.076Z,17.1
2017-06-15T02:39:40.370Z,17
2017-06-15T02:40:39.353Z,16.9
2017-06-15T02:41:38.966Z,17
2017-06-15T02:42:38.071Z,17
2017-06-15T02:43:37.447Z,17
2017-06-15T02:44:37.253Z,17
2017-06-15T02:45:35.970Z,17
2017-06-15T02:46:35.204Z,17
2017-06-15T02:47:34.431Z,16.9
2017-06-15T02:48:33.738Z,16.8
2017-06-15T02:49:32.969Z,16.8
2017-06-15T02:50:32.200Z,16.8
2017-06-15T02:51:31.431Z,16.8
2017-06-15T02:52:30.425Z,16.8
2017-06-15T02:53:29.652Z,16.7
2017-06-15T02:54:28.886Z,16.7
2017-06-15T02:55:28.691Z,16.6
2017-06-15T02:56:27.422Z,16.6
2017-06-15T02:58:26.047Z,16.6
2017-06-15T02:59:25.284Z,16.6
2017-06-15T03:00:24.514Z,16.7
2017-06-15T03:01:23.822Z,16.7
2017-06-15T03:02:23.043Z,16.7
2017-06-15T03:03:22.153Z,16.7
2017-06-15T03:04:21.970Z,16.7
2017-06-15T03:05:21.322Z,16.6
2017-06-15T03:06:19.547Z,16.6
2017-06-15T03:07:18.784Z,16.6
2017-06-15T03:08:18.011Z,16.6
2017-06-15T03:09:17.239Z,16.6
2017-06-15T03:10:16.475Z,16.6
2017-06-15T03:11:15.706Z,16.6
2017-06-15T03:12:15.323Z,16.6
2017-06-15T03:13:14.438Z,16.5
2017-06-15T03:14:13.671Z,16.5
2017-06-15T03:15:12.780Z,16.5
2017-06-15T03:16:12.017Z,16.6
2017-06-15T03:17:11.253Z,16.5
2017-06-15T03:18:10.477Z,16.5
2017-06-15T03:19:09.467Z,16.5
2017-06-15T03:20:09.080Z,16.4
2017-06-15T03:21:08.188Z,16.5
2017-06-15T03:22:07.416Z,16.5
2017-06-15T03:23:06.647Z,16.5
2017-06-15T03:24:05.765Z,16.5
2017-06-15T03:25:04.999Z,16.6
2017-06-15T03:26:04.236Z,16.6
2017-06-15T03:27:03.345Z,16.6
2017-06-15T03:29:01.845Z,16.6
2017-06-15T03:30:01.075Z,16.6
2017-06-15T03:31:00.303Z,16.5
2017-06-15T03:31:59.412Z,16.5
2017-06-15T03:32:58.640Z,16.5
2017-06-15T03:33:57.873Z,16.5
2017-06-15T03:34:57.105Z,16.4
2017-06-15T03:35:56.336Z,16.4
2017-06-15T03:36:55.479Z,16.5
2017-06-15T03:37:55.216Z,16.5
2017-06-15T03:38:54.329Z,16.5
2017-06-15T03:39:53.438Z,16.5
2017-06-15T03:40:52.664Z,16.4
2017-06-15T03:41:51.970Z,16.3
2017-06-15T03:42:51.199Z,16.4
2017-06-15T03:43:50.434Z,16.3
2017-06-15T03:44:49.665Z,16.3
2017-06-15T03:45:48.899Z,16.5
2017-06-15T03:46:48.131Z,16.5
2017-06-15T03:47:47.815Z,16.5
2017-06-15T03:48:46.422Z,16.4
2017-06-15T03:49:45.658Z,16.4
2017-06-15T03:50:44.532Z,16.4
2017-06-15T03:52:43.149Z,16.4
2017-06-15T03:53:42.377Z,16.5
2017-06-15T03:54:41.608Z,16.5
2017-06-15T03:55:40.836Z,16.5
2017-06-15T03:56:40.022Z,16.5
2017-06-15T03:57:39.252Z,16.5
2017-06-15T03:58:38.488Z,16.5
2017-06-15T03:59:37.721Z,16.5
2017-06-15T04:00:36.950Z,16.6
2017-06-15T04:01:36.067Z,16.5
2017-06-15T04:02:35.451Z,16.5
2017-06-15T04:03:34.956Z,16.5
2017-06-15T04:04:34.074Z,16.5
2017-06-15T04:05:33.300Z,16.5
2017-06-15T04:06:32.532Z,16.5
2017-06-15T04:07:31.763Z,16.5
2017-06-15T04:08:30.989Z,16.5
2017-06-15T04:09:30.222Z,16.5
2017-06-15T04:10:29.414Z,16.6
2017-06-15T04:11:28.653Z,16.6
2017-06-15T04:12:27.877Z,16.6
2017-06-15T04:13:27.102Z,16.6
2017-06-15T04:14:26.327Z,16.6
2017-06-15T04:15:26.132Z,16.6
2017-06-15T04:16:25.356Z,16.5
2017-06-15T04:17:24.079Z,16.6
2017-06-15T04:18:23.313Z,16.6
2017-06-15T04:19:22.545Z,16.6
2017-06-15T04:20:22.351Z,16.6
2017-06-15T04:21:21.076Z,16.6
2017-06-15T04:23:19.182Z,16.6
2017-06-15T04:24:18.322Z,16.6
2017-06-15T04:25:17.549Z,16.6
2017-06-15T04:26:16.664Z,16.6
2017-06-15T04:27:16.393Z,16.6
2017-06-15T04:28:15.626Z,16.6
2017-06-15T04:29:14.736Z,16.6
2017-06-15T04:30:13.971Z,16.6
2017-06-15T04:32:12.093Z,16.7
2017-06-15T04:33:11.321Z,16.7
2017-06-15T04:34:10.559Z,16.7
2017-06-15T04:35:09.791Z,16.7
2017-06-15T04:36:08.907Z,16.8
2017-06-15T04:37:08.406Z,16.8
2017-06-15T04:38:07.520Z,16.8
2017-06-15T04:39:06.741Z,16.8
2017-06-15T04:40:05.865Z,16.8
2017-06-15T04:41:05.599Z,16.9
2017-06-15T04:42:04.330Z,16.9
2017-06-15T04:43:03.563Z,16.9
2017-06-15T04:44:02.805Z,16.9
2017-06-15T04:45:02.030Z,16.9
2017-06-15T04:46:01.642Z,16.8
2017-06-15T04:47:00.866Z,16.9
2017-06-15T04:48:00.098Z,16.8
2017-06-15T04:48:59.322Z,16.8
2017-06-15T04:49:58.553Z,16.9
2017-06-15T04:50:28.984Z,16.9
2017-06-15T04:50:59.525Z,16.9
2017-06-15T04:51:56.741Z,17
2017-06-15T04:52:56.557Z,17
2017-06-15T04:54:55.241Z,17
2017-06-15T04:56:52.852Z,17
2017-06-15T04:57:52.082Z,17
2017-06-15T04:58:51.187Z,17
2017-06-15T05:00:49.810Z,17
2017-06-15T05:01:49.040Z,17.1
2017-06-15T05:02:47.915Z,17.1
2017-06-15T05:03:47.650Z,17.1
2017-06-15T05:04:46.887Z,17.1
2017-06-15T05:05:46.120Z,17.1
2017-06-15T05:06:45.352Z,17.1
2017-06-15T05:07:44.583Z,17.1
2017-06-15T05:08:44.390Z,17.1
2017-06-15T05:09:43.122Z,17.1
2017-06-15T05:10:42.354Z,17.1
2017-06-15T05:11:41.503Z,17.1
2017-06-15T05:12:40.658Z,17.1
2017-06-15T05:13:39.889Z,17.1
2017-06-15T05:14:39.129Z,17.1
2017-06-15T05:15:38.358Z,17.3
2017-06-15T05:16:37.614Z,17.4
2017-06-15T05:17:36.851Z,17.4
2017-06-15T05:18:36.082Z,17.5
2017-06-15T05:19:35.310Z,17.5
2017-06-15T05:20:34.543Z,17.5
2017-06-15T05:21:33.773Z,17.5
2017-06-15T05:22:32.999Z,17.6
2017-06-15T05:23:32.230Z,17.6
2017-06-15T05:25:30.846Z,17.6
2017-06-15T05:26:30.115Z,17.5
2017-06-15T05:27:29.341Z,17.6
2017-06-15T05:28:28.572Z,17.6
2017-06-15T05:29:27.806Z,17.7
2017-06-15T05:31:26.475Z,17.7
2017-06-15T05:32:25.210Z,17.7
2017-06-15T05:33:24.441Z,17.8
2017-06-15T05:34:24.441Z,17.8
2017-06-15T05:35:23.176Z,17.8
2017-06-15T05:36:22.408Z,17.9
2017-06-15T05:37:21.638Z,18
2017-06-15T05:38:20.872Z,18
2017-06-15T05:39:20.098Z,18
2017-06-15T05:40:19.215Z,18
2017-06-15T05:41:18.336Z,18
2017-06-15T05:43:16.485Z,18.1
2017-06-15T05:44:16.099Z,18.1
2017-06-15T05:45:15.597Z,18.1
2017-06-15T05:46:14.826Z,18.1
2017-06-15T05:47:14.057Z,18.1
2017-06-15T05:49:12.746Z,18.1
2017-06-15T05:50:11.865Z,18.1
2017-06-15T05:51:11.097Z,18.1
2017-06-15T05:52:10.332Z,18.2
2017-06-15T05:53:09.567Z,18.3
2017-06-15T05:54:08.795Z,18.3
2017-06-15T05:55:08.030Z,18.3
2017-06-15T05:56:07.022Z,18.4
2017-06-15T05:57:06.637Z,18.5
2017-06-15T05:58:05.755Z,18.5
2017-06-15T05:59:05.396Z,18.5
2017-06-15T06:00:04.631Z,18.5
2017-06-15T06:01:03.864Z,18.5
2017-06-15T06:03:01.984Z,18.4
2017-06-15T06:04:01.205Z,18.5
2017-06-15T06:05:00.821Z,18.5
2017-06-15T06:06:00.051Z,18.5
2017-06-15T06:06:59.285Z,18.5
2017-06-15T06:07:58.281Z,18.5
2017-06-15T06:08:58.101Z,18.5
2017-06-15T06:10:56.221Z,18.6
2017-06-15T06:11:55.444Z,18.6
2017-06-15T06:12:55.249Z,18.6
2017-06-15T06:13:53.873Z,18.6
2017-06-15T06:14:53.104Z,18.8
2017-06-15T06:15:52.107Z,18.8
2017-06-15T06:16:51.730Z,18.8
2017-06-15T06:17:50.964Z,18.8
2017-06-15T06:18:50.192Z,18.8
2017-06-15T06:19:49.812Z,18.9
2017-06-15T06:21:48.432Z,18.9
2017-06-15T06:22:47.236Z,18.9
2017-06-15T06:23:46.978Z,18.9
2017-06-15T06:25:45.097Z,19
2017-06-15T06:26:44.209Z,19
2017-06-15T06:27:43.934Z,18.9
2017-06-15T06:28:42.922Z,19
2017-06-15T06:29:42.031Z,19
2017-06-15T06:30:41.649Z,19
2017-06-15T06:31:40.876Z,19
2017-06-15T06:32:40.108Z,19
2017-06-15T06:33:39.345Z,19.1
2017-06-15T06:34:38.579Z,19.1
2017-06-15T06:35:37.839Z,19.1
2017-06-15T06:37:36.462Z,19.1
2017-06-15T06:39:34.969Z,19.2
2017-06-15T06:40:34.196Z,19.3
2017-06-15T06:41:33.945Z,19.3
2017-06-15T06:42:33.171Z,19.4
2017-06-15T06:43:32.157Z,19.4
2017-06-15T06:44:31.399Z,19.4
2017-06-15T06:45:30.505Z,19.5
2017-06-15T06:46:29.889Z,19.5
2017-06-15T06:47:29.514Z,19.5
2017-06-15T06:48:28.764Z,19.5
2017-06-15T06:49:27.881Z,19.5
2017-06-15T06:50:27.123Z,19.5
2017-06-15T06:51:26.368Z,19.5
2017-06-15T06:52:26.104Z,19.6
2017-06-15T06:53:25.361Z,19.5
2017-06-15T06:54:24.592Z,19.6
2017-06-15T06:55:23.831Z,19.6
2017-06-15T06:56:23.062Z,19.6
2017-06-15T06:57:22.293Z,19.6
2017-06-15T06:58:21.522Z,19.7
2017-06-15T06:59:20.749Z,19.8
2017-06-15T07:00:19.976Z,19.7
2017-06-15T07:01:19.707Z,19.7
2017-06-15T07:02:18.929Z,19.8
2017-06-15T07:03:18.209Z,19.7
2017-06-15T07:04:18.018Z,19.7
2017-06-15T07:06:16.023Z,19.8
2017-06-15T07:07:15.130Z,19.8
2017-06-15T07:08:14.236Z,20
2017-06-15T07:09:13.977Z,20
2017-06-15T07:10:13.089Z,20
2017-06-15T07:11:12.327Z,19.9
2017-06-15T07:12:11.551Z,20
2017-06-15T07:13:11.288Z,20
2017-06-15T07:14:10.521Z,20
2017-06-15T07:15:09.517Z,20
2017-06-15T07:16:09.255Z,20.1
2017-06-15T07:17:08.364Z,20.1
2017-06-15T07:18:07.475Z,20.1
2017-06-15T07:19:06.471Z,20.1
2017-06-15T07:20:06.780Z,20.2
2017-06-15T07:21:05.969Z,20.2
2017-06-15T07:22:04.708Z,20.3
2017-06-15T07:23:03.954Z,20.3
2017-06-15T07:24:03.574Z,20.4
2017-06-15T07:25:02.546Z,20.5
2017-06-15T07:26:02.289Z,20.5
2017-06-15T07:27:01.524Z,20.5
2017-06-15T07:28:01.326Z,20.4
2017-06-15T07:29:00.054Z,20.4
2017-06-15T07:29:59.309Z,20.5
2017-06-15T07:30:58.301Z,20.5
2017-06-15T07:31:58.031Z,20.5
2017-06-15T07:32:57.719Z,20.5
2017-06-15T07:33:56.839Z,20.6
2017-06-15T07:35:55.455Z,20.6
2017-06-15T07:36:54.688Z,20.7
2017-06-15T07:37:53.804Z,20.6
2017-06-15T07:38:53.048Z,20.7
2017-06-15T07:39:52.670Z,20.8
2017-06-15T07:40:51.904Z,20.8
2017-06-15T07:41:51.141Z,20.9
2017-06-15T07:42:50.372Z,20.8
2017-06-15T07:43:49.606Z,20.8
2017-06-15T07:44:49.222Z,20.8
2017-06-15T07:45:48.450Z,20.9
2017-06-15T07:46:47.678Z,21
2017-06-15T07:47:46.905Z,21
2017-06-15T07:48:46.528Z,21
2017-06-15T07:49:45.637Z,21.1
2017-06-15T07:50:45.372Z,21
2017-06-15T07:51:44.602Z,21
2017-06-15T07:52:43.834Z,21.1
2017-06-15T07:53:42.947Z,21.1
2017-06-15T07:54:42.688Z,21.1
2017-06-15T07:55:41.927Z,21.1
2017-06-15T07:56:41.155Z,21.1
2017-06-15T07:57:11.574Z,21.1
2017-06-15T07:57:42.009Z,21.1
2017-06-15T07:58:12.454Z,21.1
2017-06-15T07:59:39.366Z,21.3
2017-06-15T08:00:38.594Z,21.3
2017-06-15T08:01:37.708Z,21.3
2017-06-15T08:02:36.933Z,21.3
2017-06-15T08:03:36.670Z,21.3
2017-06-15T08:04:35.906Z,21.3
2017-06-15T08:05:35.187Z,21.3
2017-06-15T08:06:34.489Z,21.2
2017-06-15T08:07:33.718Z,21.3
2017-06-15T08:08:32.953Z,21.4
2017-06-15T08:09:32.572Z,21.4
2017-06-15T08:10:31.800Z,21.4
2017-06-15T08:11:31.007Z,21.4
2017-06-15T08:12:30.508Z,21.4
2017-06-15T08:13:29.619Z,21.4
2017-06-15T08:14:29.349Z,21.4
2017-06-15T08:15:28.466Z,21.4
2017-06-15T08:16:27.698Z,21.5
2017-06-15T08:17:27.430Z,21.5
2017-06-15T08:18:26.660Z,21.5
2017-06-15T08:19:26.900Z,21.5
2017-06-15T08:20:25.140Z,21.7
2017-06-15T08:21:24.872Z,21.7
2017-06-15T08:22:24.104Z,21.7
2017-06-15T08:23:23.911Z,21.7
2017-06-15T08:24:22.640Z,21.8
2017-06-15T08:25:21.960Z,21.9
2017-06-15T08:26:21.456Z,21.8
2017-06-15T08:27:20.575Z,21.8
2017-06-15T08:28:20.203Z,21.8
2017-06-15T08:30:18.709Z,21.7
2017-06-15T08:31:17.981Z,21.8
2017-06-15T08:32:17.727Z,21.9
2017-06-15T08:33:16.973Z,22
2017-06-15T08:34:16.088Z,22
2017-06-15T08:35:15.819Z,22
2017-06-15T08:36:14.928Z,22
2017-06-15T08:37:14.544Z,22
2017-06-15T08:38:13.778Z,22
2017-06-15T08:38:44.319Z,22
2017-06-15T08:40:12.117Z,22.1
2017-06-15T08:41:11.747Z,22.3
2017-06-15T08:42:10.978Z,22.3
2017-06-15T08:43:10.605Z,22.3
2017-06-15T08:44:09.717Z,22.3
2017-06-15T08:45:09.221Z,22.3
2017-06-15T08:46:08.835Z,22.4
2017-06-15T08:47:08.072Z,22.4
2017-06-15T08:48:07.186Z,22.4
2017-06-15T08:49:06.916Z,22.5
2017-06-15T08:50:05.913Z,22.5
2017-06-15T08:51:05.535Z,22.8
2017-06-15T08:52:04.766Z,22.8
2017-06-15T08:53:04.003Z,22.7
2017-06-15T08:54:03.751Z,22.7
2017-06-15T08:55:02.860Z,22.6
2017-06-15T08:56:02.094Z,22.7
2017-06-15T08:57:01.714Z,22.7
2017-06-15T08:58:00.942Z,22.8
2017-06-15T08:59:00.174Z,22.8
2017-06-15T08:59:59.911Z,22.7
2017-06-15T09:00:59.152Z,22.9
2017-06-15T09:01:58.028Z,23
2017-06-15T09:02:58.070Z,22.9
2017-06-15T09:03:57.294Z,22.9
2017-06-15T09:04:56.600Z,23
2017-06-15T09:05:56.423Z,22.9
2017-06-15T09:06:55.650Z,22.9
2017-06-15T09:07:54.887Z,22.8
2017-06-15T09:08:54.122Z,23
2017-06-15T09:09:53.356Z,23
2017-06-15T09:10:53.087Z,23
2017-06-15T09:11:52.199Z,23
2017-06-15T09:12:51.578Z,23
2017-06-15T09:13:51.790Z,23
2017-06-15T09:14:50.398Z,23
2017-06-15T09:15:50.133Z,23
2017-06-15T09:16:49.367Z,23
2017-06-15T09:17:48.595Z,23.1
2017-06-15T09:18:48.212Z,23.1
2017-06-15T09:19:47.441Z,23.1
2017-06-15T09:20:46.681Z,23.2
2017-06-15T09:21:46.985Z,23.1
2017-06-15T09:22:45.713Z,23.2
2017-06-15T09:23:44.825Z,23.2
2017-06-15T09:24:44.567Z,23.3
2017-06-15T09:25:43.792Z,23.4
2017-06-15T09:26:42.909Z,23.3
2017-06-15T09:27:42.519Z,23.3
2017-06-15T09:28:42.261Z,23.5
2017-06-15T09:29:41.500Z,23.5
2017-06-15T09:30:40.493Z,23.5
2017-06-15T09:31:40.226Z,23.5
2017-06-15T09:32:40.034Z,23.4
2017-06-15T09:33:38.765Z,23.4
2017-06-15T09:34:38.499Z,23.5
2017-06-15T09:35:38.311Z,23.6
2017-06-15T09:36:37.042Z,23.5
2017-06-15T09:37:36.784Z,23.5
2017-06-15T09:38:36.018Z,23.5
2017-06-15T09:40:34.644Z,23.6
2017-06-15T09:41:34.385Z,23.6
2017-06-15T09:42:33.622Z,23.6
2017-06-15T09:43:33.244Z,23.5
2017-06-15T09:44:32.479Z,23.4
2017-06-15T09:45:31.590Z,23.3
2017-06-15T09:46:31.111Z,23.5
2017-06-15T09:47:01.659Z,23.5
2017-06-15T09:47:32.207Z,23.4
2017-06-15T09:48:02.755Z,23.4
2017-06-15T09:49:29.668Z,23.6
2017-06-15T09:50:28.787Z,23.6
2017-06-15T09:51:28.527Z,23.6
2017-06-15T09:52:27.757Z,23.6
2017-06-15T09:53:27.006Z,23.7
2017-06-15T09:54:26.742Z,23.7
2017-06-15T09:55:26.558Z,23.6
2017-06-15T09:56:25.278Z,23.6
2017-06-15T09:57:25.012Z,23.6
2017-06-15T09:58:24.008Z,23.5
2017-06-15T09:59:23.630Z,23.6
2017-06-15T10:00:22.747Z,23.5
2017-06-15T10:01:22.480Z,23.5
2017-06-15T10:02:21.715Z,23.5
2017-06-15T10:03:21.455Z,23.6
2017-06-15T10:04:20.687Z,23.6
2017-06-15T10:05:20.428Z,23.6
2017-06-15T10:06:19.549Z,23.6
2017-06-15T10:07:19.216Z,23.5
2017-06-15T10:08:18.522Z,23.4
2017-06-15T10:09:17.758Z,23.5
2017-06-15T10:11:16.876Z,23.5
2017-06-15T10:12:16.110Z,23.6
2017-06-15T10:13:15.722Z,23.5
2017-06-15T10:14:14.725Z,23.6
2017-06-15T10:15:14.386Z,23.6
2017-06-15T10:16:14.125Z,23.5
2017-06-15T10:16:44.434Z,23.5
2017-06-15T10:17:14.868Z,23.5
2017-06-15T10:17:45.404Z,23.5
2017-06-15T10:18:15.947Z,23.6
2017-06-15T10:18:46.480Z,23.6
2017-06-15T10:20:11.879Z,23.6
2017-06-15T10:21:11.110Z,23.6
2017-06-15T10:22:10.343Z,23.6
2017-06-15T10:23:09.842Z,23.6
2017-06-15T10:24:09.578Z,23.6
2017-06-15T10:25:08.699Z,23.6
2017-06-15T10:26:08.439Z,23.6
2017-06-15T10:27:07.673Z,23.6
2017-06-15T10:28:07.315Z,23.6
2017-06-15T10:29:06.558Z,23.7
2017-06-15T10:30:06.007Z,23.6
2017-06-15T10:31:05.624Z,23.6
2017-06-15T10:32:04.857Z,23.6
2017-06-15T10:33:04.474Z,23.6
2017-06-15T10:34:03.714Z,23.6
2017-06-15T10:35:03.443Z,23.6
2017-06-15T10:36:03.073Z,23.5
2017-06-15T10:37:02.386Z,23.6
2017-06-15T10:38:01.627Z,23.6
2017-06-15T10:39:01.367Z,23.6
2017-06-15T10:40:00.596Z,23.6
2017-06-15T10:41:00.096Z,23.6
2017-06-15T10:42:00.167Z,23.7
2017-06-15T10:42:58.774Z,23.6
2017-06-15T10:43:58.510Z,23.6
2017-06-15T10:44:57.743Z,23.6
2017-06-15T10:45:57.480Z,23.5
2017-06-15T10:46:56.710Z,23.5
2017-06-15T10:47:56.442Z,23.5
2017-06-15T10:48:55.555Z,23.5
2017-06-15T10:49:55.178Z,23.5
2017-06-15T10:51:54.177Z,23.5
2017-06-15T10:52:54.371Z,23.5
2017-06-15T10:53:52.977Z,23.5
2017-06-15T10:55:52.103Z,23.6
2017-06-15T10:56:51.715Z,23.6
2017-06-15T10:58:50.811Z,23.6
2017-06-15T10:59:50.051Z,23.8
2017-06-15T11:00:49.163Z,23.8
2017-06-15T11:01:48.789Z,23.8
2017-06-15T11:02:48.520Z,23.8
2017-06-15T11:03:47.751Z,23.8
2017-06-15T11:04:47.481Z,23.7
2017-06-15T11:05:47.103Z,23.7
2017-06-15T11:06:46.337Z,23.6
2017-06-15T11:07:46.078Z,23.6
2017-06-15T11:08:45.312Z,23.8
2017-06-15T11:09:44.814Z,23.7
2017-06-15T11:10:45.137Z,23.6
2017-06-15T11:11:43.873Z,23.6
2017-06-15T11:12:43.105Z,23.6
2017-06-15T11:13:42.835Z,23.6
2017-06-15T11:14:42.565Z,23.7
2017-06-15T11:15:41.789Z,23.6
2017-06-15T11:16:41.524Z,23.6
2017-06-15T11:17:40.761Z,23.6
2017-06-15T11:18:40.497Z,23.6
2017-06-15T11:20:38.879Z,23.7
2017-06-15T11:21:39.455Z,23.8
2017-06-15T11:22:38.190Z,23.8
2017-06-15T11:23:37.964Z,23.8
2017-06-15T11:24:37.191Z,23.8
2017-06-15T11:25:36.933Z,23.8
2017-06-15T11:26:36.044Z,23.7
2017-06-15T11:27:35.663Z,23.8
2017-06-15T11:29:34.787Z,23.9
2017-06-15T11:30:34.518Z,24
2017-06-15T11:31:33.748Z,24
2017-06-15T11:32:33.483Z,24
2017-06-15T11:34:32.372Z,24
2017-06-15T11:35:32.110Z,24
2017-06-15T11:36:31.340Z,24
2017-06-15T11:37:30.959Z,24
2017-06-15T11:38:30.580Z,23.9
2017-06-15T11:39:30.314Z,23.9
2017-06-15T11:40:29.552Z,24
2017-06-15T11:41:29.877Z,24
2017-06-15T11:42:28.603Z,24
2017-06-15T11:43:28.242Z,24
2017-06-15T11:44:27.856Z,24
2017-06-15T11:45:27.180Z,24
2017-06-15T11:46:26.797Z,24.1
2017-06-15T11:48:25.806Z,24
2017-06-15T11:49:25.549Z,24
2017-06-15T11:50:24.775Z,24.1
2017-06-15T11:51:24.392Z,24.1
2017-06-15T11:52:24.704Z,24.1
2017-06-15T11:53:23.357Z,24.1
2017-06-15T11:54:23.092Z,24.1
2017-06-15T11:55:22.707Z,24.1
2017-06-15T11:56:21.938Z,24.1
2017-06-15T11:57:21.676Z,24
2017-06-15T11:58:21.284Z,24
2017-06-15T11:59:21.021Z,24
2017-06-15T12:00:20.251Z,24
2017-06-15T12:01:19.993Z,24
2017-06-15T12:02:19.221Z,24
2017-06-15T12:04:18.924Z,24
2017-06-15T12:05:18.160Z,24
2017-06-15T12:06:17.908Z,24
2017-06-15T12:07:17.132Z,24
2017-06-15T12:08:16.871Z,24
2017-06-15T12:09:16.601Z,24.1
2017-06-15T12:10:15.844Z,24.1
2017-06-15T12:11:15.461Z,24.1
2017-06-15T12:12:15.082Z,24.1
2017-06-15T12:13:14.701Z,24.1
2017-06-15T12:14:14.331Z,24.1
2017-06-15T12:15:13.448Z,24.1
2017-06-15T12:16:13.078Z,24.1
2017-06-15T12:17:12.815Z,24.1
2017-06-15T12:18:12.548Z,24.2
2017-06-15T12:19:12.047Z,24.3
2017-06-15T12:20:11.783Z,24.3
2017-06-15T12:21:10.894Z,24.3
2017-06-15T12:22:10.519Z,24.2
2017-06-15T12:23:10.829Z,24.2
2017-06-15T12:24:09.890Z,24.1
2017-06-15T12:25:09.273Z,24.2
2017-06-15T12:26:08.776Z,24.2
2017-06-15T12:27:08.582Z,24.3
2017-06-15T12:28:08.311Z,24.3
2017-06-15T12:29:07.539Z,24.3
2017-06-15T12:30:07.157Z,24.3
2017-06-15T12:31:06.903Z,24.4
2017-06-15T12:32:06.515Z,24.3
2017-06-15T12:33:06.249Z,24.5
2017-06-15T12:34:05.486Z,24.5
2017-06-15T12:35:05.105Z,24.5
2017-06-15T12:36:04.847Z,24.5
2017-06-15T12:37:04.577Z,24.4
2017-06-15T12:38:03.571Z,24.4
2017-06-15T12:39:03.570Z,24.4
2017-06-15T12:40:03.072Z,24.3
2017-06-15T12:41:02.696Z,24.3
2017-06-15T12:42:02.380Z,24.3
2017-06-15T12:43:02.203Z,24.4
2017-06-15T12:43:32.386Z,24.4
2017-06-15T12:44:02.935Z,24.5
2017-06-15T12:45:01.162Z,24.5
2017-06-15T12:46:00.905Z,24.5
2017-06-15T12:47:00.146Z,24.5
2017-06-15T12:47:59.839Z,24.5
2017-06-15T12:48:59.579Z,24.5
2017-06-15T12:49:59.196Z,24.6
2017-06-15T12:50:58.931Z,24.6
2017-06-15T12:51:58.159Z,24.5
2017-06-15T12:52:58.313Z,24.5
2017-06-15T12:53:57.545Z,24.5
2017-06-15T12:54:57.167Z,24.5
2017-06-15T12:55:56.784Z,24.6
2017-06-15T12:56:56.013Z,24.5
2017-06-15T12:57:55.749Z,24.5
2017-06-15T12:58:55.523Z,24.5
2017-06-15T12:59:54.835Z,24.5
2017-06-15T13:00:54.454Z,24.5
2017-06-15T13:01:54.185Z,24.5
2017-06-15T13:02:53.807Z,24.4
2017-06-15T13:03:54.118Z,24.5
2017-06-15T13:04:53.440Z,24.5
2017-06-15T13:05:52.678Z,24.5
2017-06-15T13:06:52.414Z,24.4
2017-06-15T13:07:51.657Z,24.5
2017-06-15T13:08:51.391Z,24.6
2017-06-15T13:09:51.022Z,24.6
2017-06-15T13:10:50.757Z,24.6
2017-06-15T13:11:49.994Z,24.7
2017-06-15T13:12:49.728Z,24.7
2017-06-15T13:13:49.459Z,24.8
2017-06-15T13:14:49.192Z,24.7
2017-06-15T13:15:48.309Z,24.7
2017-06-15T13:16:47.923Z,24.7
2017-06-15T13:17:47.425Z,24.7
2017-06-15T13:18:47.550Z,24.7
2017-06-15T13:19:47.165Z,24.6
2017-06-15T13:20:46.779Z,24.6
2017-06-15T13:21:46.009Z,24.6
2017-06-15T13:22:45.743Z,24.6
2017-06-15T13:23:45.479Z,24.6
2017-06-15T13:25:45.181Z,24.6
2017-06-15T13:26:44.414Z,24.6
2017-06-15T13:27:43.645Z,24.7
2017-06-15T13:28:43.467Z,24.7
2017-06-15T13:29:43.206Z,24.7
2017-06-15T13:30:42.443Z,24.7
2017-06-15T13:31:42.181Z,24.8
2017-06-15T13:32:41.919Z,24.8
2017-06-15T13:33:41.659Z,24.8
2017-06-15T13:34:40.790Z,24.8
2017-06-15T13:35:40.529Z,24.8
2017-06-15T13:36:40.839Z,24.8
2017-06-15T13:37:39.948Z,24.8
2017-06-15T13:38:39.680Z,24.9
2017-06-15T13:39:38.912Z,24.9
2017-06-15T13:40:38.646Z,25
2017-06-15T13:41:38.388Z,25
2017-06-15T13:42:38.585Z,25
2017-06-15T13:43:37.315Z,24.9
2017-06-15T13:44:37.055Z,24.8
2017-06-15T13:46:36.183Z,24.8
2017-06-15T13:47:35.679Z,24.8
2017-06-15T13:48:35.298Z,24.8
2017-06-15T13:50:34.820Z,24.8
2017-06-15T13:51:34.508Z,24.8